Time;durP1;ratioP1;P1;durP2;ratioP2;P2;SDS_P1;SDS_P2;PMS_P1;PMS_P2;Temp;Humidity;BMP_temperature;BMP_pressure;BME280_temperature;BME280_humidity;BME280_pressure;Samples;Min_cycle;Max_cycle;Signal;HPM_P1;HPM_P2
2021/11/16 00:01:47;;;;;;;2.20;0.70;;;;;;;1.62;62.71;101840.27;1680683;83;21545;-54
2021/11/16 00:04:13;;;;;;;1.33;0.60;;;;;;;1.63;62.68;101845.61;1676879;83;21041;-54
2021/11/16 00:06:39;;;;;;;1.20;0.70;;;;;;;1.63;62.63;101838.97;1714490;81;21124;-54
2021/11/16 00:09:06;;;;;;;0.80;0.70;;;;;;;1.64;62.56;101837.22;1713725;81;21038;-54
2021/11/16 00:11:33;;;;;;;1.10;0.90;;;;;;;1.64;62.56;101836.78;1715343;81;21079;-54
2021/11/16 00:14:01;;;;;;;1.57;0.60;;;;;;;1.65;62.61;101833.70;1716449;81;21091;-54
2021/11/16 00:16:27;;;;;;;2.47;0.50;;;;;;;1.65;62.47;101831.95;1679974;83;21414;-55
2021/11/16 00:19:03;;;;;;;1.03;0.60;;;;;;;1.65;62.27;101831.05;1716108;81;23043;-55
2021/11/16 00:21:26;;;;;;;0.90;0.50;;;;;;;1.63;62.02;101834.98;1711489;81;21030;-55
2021/11/16 00:24:02;;;;;;;1.60;0.93;;;;;;;1.63;62.09;101835.42;1717805;82;21654;-54
2021/11/16 00:26:26;;;;;;;1.10;0.60;;;;;;;1.62;62.04;101835.85;1714307;82;22222;-54
2021/11/16 00:28:53;;;;;;;1.17;0.50;;;;;;;1.61;62.09;101834.52;1710565;81;21728;-54
2021/11/16 00:31:20;;;;;;;0.60;0.50;;;;;;;1.62;61.82;101834.52;1713880;82;22230;-55
2021/11/16 00:33:47;;;;;;;0.90;0.50;;;;;;;1.59;61.82;101831.83;1716716;82;21520;-54
2021/11/16 00:36:14;;;;;;;0.70;0.50;;;;;;;1.58;61.82;101830.03;1704488;82;21057;-55
2021/11/16 00:38:41;;;;;;;0.70;0.53;;;;;;;1.58;61.82;101827.80;1715120;82;21060;-54
2021/11/16 00:41:08;;;;;;;0.80;0.57;;;;;;;1.58;61.74;101830.46;1708807;82;21047;-54
2021/11/16 00:43:34;;;;;;;2.40;0.67;;;;;;;1.56;61.80;101822.89;1673991;84;21068;-54
2021/11/16 00:46:01;;;;;;;4.03;0.60;;;;;;;1.55;61.66;101820.66;1712137;82;20958;-54
2021/11/16 00:49:13;;;;;;;2.07;0.70;;;;;;;1.54;61.51;101822.84;1862910;75;26422;-56
2021/11/16 00:51:41;;;;;;;1.00;0.60;;;;;;;1.48;61.52;101826.70;1842395;75;21695;-54
2021/11/16 00:54:08;;;;;;;1.53;0.70;;;;;;;1.49;61.60;101828.50;1799657;77;21287;-55
2021/11/16 00:56:35;;;;;;;1.27;0.73;;;;;;;1.46;61.58;101829.33;1795548;78;21033;-55
2021/11/16 00:59:01;;;;;;;0.80;0.60;;;;;;;1.45;61.59;101828.86;1772415;79;20993;-55
2021/11/16 01:01:27;;;;;;;1.10;0.60;;;;;;;1.44;61.67;101828.85;1811374;77;21107;-56
2021/11/16 01:03:54;;;;;;;0.80;0.60;;;;;;;1.43;61.74;101833.27;1806762;77;21502;-56
2021/11/16 01:06:20;;;;;;;0.73;0.50;;;;;;;1.43;61.83;101826.63;1802598;77;21343;-55
2021/11/16 01:08:47;;;;;;;1.13;0.60;;;;;;;1.43;61.68;101827.95;1809016;77;21113;-55
2021/11/16 01:11:14;;;;;;;0.93;0.60;;;;;;;1.42;61.64;101822.61;1773417;78;21287;-55
2021/11/16 01:13:40;;;;;;;1.00;0.80;;;;;;;1.43;61.62;101824.41;1762610;78;21151;-55
2021/11/16 01:16:07;;;;;;;0.97;0.77;;;;;;;1.42;61.54;101823.94;1795175;77;21060;-55
2021/11/16 01:18:33;;;;;;;1.00;0.70;;;;;;;1.41;61.53;101819.05;1797350;78;22443;-56
2021/11/16 01:20:59;;;;;;;1.57;0.63;;;;;;;1.39;61.54;101815.89;1795590;77;21136;-56
2021/11/16 01:23:26;;;;;;;1.00;0.63;;;;;;;1.38;61.64;101818.08;1802167;77;21040;-56
2021/11/16 01:25:54;;;;;;;4.00;0.70;;;;;;;1.35;61.73;101815.38;1805434;77;21080;-55
2021/11/16 01:28:27;;;;;;;1.00;0.80;;;;;;;1.33;61.81;101818.00;1772328;78;21147;-55
2021/11/16 01:30:51;;;;;;;2.00;0.70;;;;;;;1.34;61.89;101817.14;1797048;77;21154;-56
2021/11/16 01:33:21;;;;;;;0.80;0.67;;;;;;;1.36;61.99;101815.85;1755122;78;20941;-56
2021/11/16 01:35:46;;;;;;;0.80;0.60;;;;;;;1.37;62.00;101816.28;1782022;78;20972;-55
2021/11/16 01:38:15;;;;;;;0.70;0.60;;;;;;;1.37;61.98;101814.53;1788301;78;20927;-55
2021/11/16 01:40:41;;;;;;;1.10;0.70;;;;;;;1.37;61.98;101815.86;1782429;78;20922;-56
2021/11/16 01:43:09;;;;;;;1.30;0.70;;;;;;;1.37;61.97;101815.86;1781008;78;22412;-56
2021/11/16 01:45:37;;;;;;;0.90;0.70;;;;;;;1.37;61.90;101811.88;1770101;79;21022;-56
2021/11/16 01:48:05;;;;;;;1.13;0.70;;;;;;;1.35;61.86;101806.09;1756050;80;21506;-55
2021/11/16 01:50:32;;;;;;;1.50;0.70;;;;;;;1.35;61.81;101806.09;1757186;79;21187;-56
2021/11/16 01:52:58;;;;;;;1.30;0.70;;;;;;;1.33;61.74;101803.41;1758758;80;22303;-55
2021/11/16 01:55:25;;;;;;;10.03;1.00;;;;;;;1.33;61.72;101809.14;1756171;80;21507;-55
2021/11/16 01:57:53;;;;;;;11.80;1.00;;;;;;;1.33;61.75;101803.41;1753152;79;22212;-55
2021/11/16 02:00:27;;;;;;;3.57;0.90;;;;;;;1.35;61.83;101806.09;1752040;80;22548;-55
2021/11/16 02:02:54;;;;;;;1.10;0.70;;;;;;;1.37;61.84;101805.67;1783756;78;20867;-56
2021/11/16 02:05:22;;;;;;;1.30;0.73;;;;;;;1.38;61.79;101808.36;1763971;79;21036;-55
2021/11/16 02:07:49;;;;;;;1.20;0.73;;;;;;;1.38;61.80;101807.03;1725500;79;21186;-56
2021/11/16 02:10:16;;;;;;;3.23;0.90;;;;;;;1.39;61.85;101806.17;1761093;79;21036;-56
2021/11/16 02:12:42;;;;;;;0.80;0.67;;;;;;;1.41;61.85;101808.44;1762859;79;21072;-55
2021/11/16 02:15:09;;;;;;;3.10;0.80;;;;;;;1.43;61.84;101801.84;1761258;79;21097;-55
2021/11/16 02:17:36;;;;;;;0.73;0.70;;;;;;;1.44;61.86;101806.30;1767475;79;21503;-55
2021/11/16 02:20:05;;;;;;;1.20;0.87;;;;;;;1.44;61.95;101795.25;1766106;79;21109;-56
2021/11/16 02:22:32;;;;;;;1.00;0.70;;;;;;;1.44;61.96;101791.70;1764105;79;21080;-56
2021/11/16 02:24:59;;;;;;;2.00;0.70;;;;;;;1.43;61.93;101788.14;1763687;79;21087;-56
2021/11/16 02:27:25;;;;;;;1.30;0.80;;;;;;;1.43;61.98;101784.59;1761834;79;21120;-55
2021/11/16 02:29:51;;;;;;;0.90;0.70;;;;;;;1.42;62.09;101779.72;1759717;79;21108;-56
2021/11/16 02:32:18;;;;;;;1.30;0.80;;;;;;;1.44;62.01;101779.76;1762372;79;22785;-55
2021/11/16 02:34:44;;;;;;;1.70;0.80;;;;;;;1.44;61.99;101775.77;1761121;79;21404;-55
2021/11/16 02:37:10;;;;;;;1.93;0.90;;;;;;;1.43;62.01;101772.23;1759488;79;21534;-56
2021/11/16 02:39:36;;;;;;;1.27;0.83;;;;;;;1.41;62.11;101771.72;1760325;79;21740;-56
2021/11/16 02:42:03;;;;;;;1.23;0.80;;;;;;;1.41;62.12;101773.05;1765117;79;21076;-56
2021/11/16 02:44:31;;;;;;;1.20;1.00;;;;;;;1.40;62.25;101768.17;1761196;79;22625;-56
2021/11/16 02:46:57;;;;;;;1.00;0.80;;;;;;;1.41;62.21;101769.96;1760062;79;21056;-56
2021/11/16 02:49:24;;;;;;;1.30;0.90;;;;;;;1.39;62.17;101765.48;1754980;79;21051;-56
2021/11/16 02:51:50;;;;;;;3.80;1.23;;;;;;;1.36;62.14;101758.34;1758705;79;21123;-56
2021/11/16 02:54:20;;;;;;;1.37;0.83;;;;;;;1.34;62.16;101758.77;1754673;79;21037;-56
2021/11/16 02:56:47;;;;;;;2.77;0.87;;;;;;;1.32;62.14;101760.48;1759401;79;22432;-56
2021/11/16 02:59:14;;;;;;;1.40;0.73;;;;;;;1.31;62.17;101759.11;1757728;79;21029;-56
2021/11/16 03:01:41;;;;;;;1.00;0.90;;;;;;;1.31;62.24;101757.79;1755552;79;21071;-55
2021/11/16 03:04:08;;;;;;;1.97;0.90;;;;;;;1.30;62.26;101760.88;1781229;78;21126;-55
2021/11/16 03:06:34;;;;;;;1.07;0.70;;;;;;;1.29;62.30;101754.20;1778000;78;21040;-55
2021/11/16 03:09:01;;;;;;;1.20;0.90;;;;;;;1.28;62.23;101753.30;1747863;80;22392;-55
2021/11/16 03:11:27;;;;;;;1.20;0.93;;;;;;;1.25;62.17;101749.28;1780810;78;21044;-55
2021/11/16 03:13:54;;;;;;;1.40;0.90;;;;;;;1.26;62.15;101743.55;1780643;78;21017;-55
2021/11/16 03:16:21;;;;;;;1.67;0.90;;;;;;;1.24;62.17;101747.48;1780433;78;21028;-55
2021/11/16 03:18:49;;;;;;;1.30;1.00;;;;;;;1.24;62.22;101748.81;1780715;78;21096;-55
2021/11/16 03:21:16;;;;;;;0.90;0.77;;;;;;;1.24;62.25;101749.24;1772001;79;21089;-55
2021/11/16 03:23:44;;;;;;;1.20;1.00;;;;;;;1.22;62.28;101739.92;1769555;79;21499;-55
2021/11/16 03:26:13;;;;;;;1.60;1.10;;;;;;;1.22;62.18;101739.92;1767019;79;21504;-55
2021/11/16 03:28:41;;;;;;;1.10;1.00;;;;;;;1.21;62.16;101736.80;1767989;79;21057;-55
2021/11/16 03:31:20;;;;;;;2.07;1.00;;;;;;;1.22;62.04;101737.70;1768502;79;21469;-55
2021/11/16 03:33:39;;;;;;;1.43;0.97;;;;;;;1.18;62.06;101735.43;1768503;79;22576;-55
2021/11/16 03:36:05;;;;;;;3.47;1.20;;;;;;;1.17;62.06;101737.61;1772106;79;21238;-55
2021/11/16 03:38:32;;;;;;;2.37;1.10;;;;;;;1.17;61.96;101735.39;1766137;79;21591;-55
2021/11/16 03:40:59;;;;;;;3.23;1.13;;;;;;;1.13;61.94;101731.77;1769679;79;21337;-55
2021/11/16 03:43:25;;;;;;;3.70;1.30;;;;;;;1.11;61.97;101738.78;1767046;79;21170;-55
2021/11/16 03:45:55;;;;;;;1.40;1.30;;;;;;;1.09;61.96;101730.82;1768736;79;21071;-56
2021/11/16 03:48:22;;;;;;;1.83;1.13;;;;;;;1.09;62.01;101735.23;1754467;79;20989;-55
2021/11/16 03:50:48;;;;;;;1.93;1.60;;;;;;;1.09;62.12;101733.47;1754331;80;20923;-55
2021/11/16 03:53:14;;;;;;;1.20;1.10;;;;;;;1.09;62.07;101736.13;1756067;80;21592;-56
2021/11/16 03:55:42;;;;;;;4.03;1.00;;;;;;;1.08;62.16;101730.36;1758614;80;21369;-55
2021/11/16 03:58:15;;;;;;;1.63;1.20;;;;;;;1.08;62.10;101731.68;1753755;79;21050;-55
2021/11/16 04:00:46;;;;;;;1.63;1.00;;;;;;;1.08;62.10;101730.36;1755625;80;20917;-55
2021/11/16 04:03:13;;;;;;;1.97;1.00;;;;;;;1.07;62.17;101729.89;1758859;80;20906;-56
2021/11/16 04:05:40;;;;;;;2.33;1.13;;;;;;;1.08;62.18;101724.16;1782451;78;20906;-56
2021/11/16 04:08:06;;;;;;;3.90;1.40;;;;;;;1.10;62.20;101724.66;1784528;78;20902;-55
2021/11/16 04:10:33;;;;;;;2.53;1.10;;;;;;;1.10;62.17;101719.78;1756929;80;21096;-55
2021/11/16 04:12:59;;;;;;;1.77;1.10;;;;;;;1.10;62.15;101725.09;1758443;80;20886;-55
2021/11/16 04:15:26;;;;;;;1.83;1.43;;;;;;;1.09;62.08;101729.92;1755978;79;20973;-56
2021/11/16 04:17:54;;;;;;;1.83;1.00;;;;;;;1.08;62.07;101734.33;1754960;80;20941;-56
2021/11/16 04:20:28;;;;;;;1.63;1.30;;;;;;;1.09;62.13;101728.60;1756425;80;21972;-55
2021/11/16 04:22:58;;;;;;;2.07;1.17;;;;;;;1.10;62.11;101727.74;1755333;80;21161;-55
2021/11/16 04:25:25;;;;;;;1.80;1.30;;;;;;;1.12;62.14;101720.69;1754478;80;21402;-56
2021/11/16 04:27:52;;;;;;;1.53;1.27;;;;;;;1.12;62.10;101720.69;1751867;80;21001;-56
2021/11/16 04:30:20;;;;;;;3.50;1.20;;;;;;;1.12;62.15;101724.23;1757813;80;20918;-56
2021/11/16 04:32:47;;;;;;;1.60;1.10;;;;;;;1.13;62.21;101723.81;1755496;80;21388;-55
2021/11/16 04:35:15;;;;;;;2.13;1.30;;;;;;;1.14;62.21;101723.84;1752320;79;22226;-56
2021/11/16 04:37:43;;;;;;;2.43;1.30;;;;;;;1.14;62.22;101726.50;1756298;79;20910;-56
2021/11/16 04:40:12;;;;;;;1.67;1.10;;;;;;;1.15;62.22;101731.38;1756921;80;21076;-56
2021/11/16 04:42:38;;;;;;;1.63;1.20;;;;;;;1.14;62.30;101729.15;1753059;80;20926;-55
2021/11/16 04:45:08;;;;;;;2.17;1.27;;;;;;;1.15;62.30;101728.72;1750724;80;21564;-56
2021/11/16 04:47:47;;;;;;;1.70;1.30;;;;;;;1.16;62.34;101734.49;1753591;80;21111;-56
2021/11/16 04:50:17;;;;;;;2.43;1.20;;;;;;;1.17;62.37;101732.31;1750144;80;21301;-55
2021/11/16 04:52:51;;;;;;;3.13;1.20;;;;;;;1.20;62.24;101729.70;1753664;80;20960;-55
2021/11/16 04:55:24;;;;;;;2.37;1.20;;;;;;;1.21;62.20;101733.25;1779405;79;21032;-55
2021/11/16 05:02:55;;;;;;;4.77;1.10;;;;;;;1.19;62.17;101733.25;1770672;79;20930;-55
2021/11/16 05:05:22;;;;;;;13.80;2.00;;;;;;;1.19;61.94;101727.04;1769156;79;20922;-55
2021/11/16 05:07:59;;;;;;;2.83;1.30;;;;;;;1.14;61.89;101725.60;1769626;79;20956;-55
2021/11/16 05:10:24;;;;;;;1.80;1.13;;;;;;;1.15;61.95;101727.39;1765350;79;21029;-55
2021/11/16 05:12:51;;;;;;;6.77;1.27;;;;;;;1.16;61.87;101730.94;1752799;80;22362;-55
2021/11/16 05:15:19;;;;;;;2.10;1.33;;;;;;;1.12;61.84;101722.91;1756127;80;20982;-55
2021/11/16 05:17:47;;;;;;;2.53;1.13;;;;;;;1.12;61.87;101732.63;1753624;80;21076;-55
2021/11/16 05:20:16;;;;;;;4.17;1.30;;;;;;;1.11;61.85;101733.05;1753292;80;21092;-55
2021/11/16 05:22:42;;;;;;;2.30;1.43;;;;;;;1.10;61.89;101730.39;1750852;79;21060;-55
2021/11/16 05:25:09;;;;;;;1.80;1.50;;;;;;;1.08;61.93;101730.36;1756391;79;21138;-55
2021/11/16 05:27:37;;;;;;;6.17;1.87;;;;;;;1.08;62.04;101729.03;1750837;79;21108;-55
2021/11/16 05:30:06;;;;;;;3.63;2.40;;;;;;;1.08;62.03;101725.48;1777103;78;21069;-56
2021/11/16 05:32:36;;;;;;;7.80;2.17;;;;;;;1.08;62.03;101734.77;1777640;78;21709;-55
2021/11/16 05:35:04;;;;;;;2.70;1.73;;;;;;;1.09;62.07;101731.25;1784989;78;20982;-55
2021/11/16 05:37:30;;;;;;;5.90;1.53;;;;;;;1.08;62.07;101733.44;1787413;78;21872;-55
2021/11/16 05:39:57;;;;;;;2.37;1.33;;;;;;;1.10;62.05;101743.23;1783815;78;21494;-55
2021/11/16 05:42:23;;;;;;;1.87;1.30;;;;;;;1.12;62.04;101742.80;1773499;79;20969;-55
2021/11/16 05:44:50;;;;;;;2.97;1.30;;;;;;;1.14;62.00;101737.53;1767821;79;21167;-56
2021/11/16 05:47:16;;;;;;;2.53;1.43;;;;;;;1.13;62.06;101736.64;1765836;79;21042;-55
2021/11/16 05:49:42;;;;;;;1.93;1.83;;;;;;;1.14;62.12;101742.41;1768117;79;21221;-55
2021/11/16 05:52:09;;;;;;;2.27;1.70;;;;;;;1.13;62.20;101743.70;1765507;79;21029;-55
2021/11/16 05:54:36;;;;;;;2.20;1.70;;;;;;;1.16;62.24;101743.77;1773883;79;21398;-55
2021/11/16 05:57:06;;;;;;;2.17;1.30;;;;;;;1.15;62.26;101744.63;1770865;79;21052;-55
2021/11/16 05:59:35;;;;;;;5.00;1.40;;;;;;;1.16;62.27;101749.52;1793350;78;20862;-55
2021/11/16 06:02:06;;;;;;;2.20;1.30;;;;;;;1.16;62.28;101749.08;1789595;78;22109;-55
2021/11/16 06:04:33;;;;;;;1.90;1.40;;;;;;;1.17;62.30;101750.88;1756333;80;21468;-55
2021/11/16 06:07:01;;;;;;;3.47;1.37;;;;;;;1.18;62.18;101752.67;1783711;78;21048;-55
2021/11/16 06:09:30;;;;;;;3.33;1.37;;;;;;;1.19;62.20;101750.91;1788231;78;20956;-55
2021/11/16 06:11:59;;;;;;;2.20;1.60;;;;;;;1.21;62.18;101754.04;1786900;79;21310;-55
2021/11/16 06:14:26;;;;;;;2.23;1.57;;;;;;;1.23;62.16;101754.08;1783667;78;21440;-55
2021/11/16 06:16:52;;;;;;;2.60;1.20;;;;;;;1.23;62.10;101753.65;1773160;79;20988;-55
2021/11/16 06:19:20;;;;;;;3.10;1.33;;;;;;;1.25;62.07;101750.61;1765156;79;21094;-55
2021/11/16 06:21:47;;;;;;;1.80;1.43;;;;;;;1.27;62.00;101746.66;1762894;79;21151;-55
2021/11/16 06:24:13;;;;;;;2.50;1.67;;;;;;;1.26;61.96;101743.11;1764013;79;21117;-55
2021/11/16 06:26:40;;;;;;;5.67;1.77;;;;;;;1.27;61.92;101750.22;1768323;79;21155;-55
2021/11/16 06:29:07;;;;;;;5.00;1.60;;;;;;;1.28;61.80;101754.63;1765744;80;20933;-55
2021/11/16 06:31:34;;;;;;;1.87;1.13;;;;;;;1.28;61.80;101753.30;1765689;79;20925;-55
2021/11/16 06:34:03;;;;;;;1.73;1.60;;;;;;;1.31;61.83;101745.42;1765939;79;21334;-55
2021/11/16 06:36:38;;;;;;;1.67;1.47;;;;;;;1.32;61.77;101750.30;1772036;79;20921;-55
2021/11/16 06:39:08;;;;;;;1.73;1.10;;;;;;;1.32;61.63;101744.98;1769576;79;21099;-55
2021/11/16 06:41:34;;;;;;;2.83;1.67;;;;;;;1.33;61.49;101746.36;1767961;80;21361;-55
2021/11/16 06:44:01;;;;;;;18.10;2.33;;;;;;;1.33;61.45;101752.98;1768846;79;20961;-56
2021/11/16 06:46:30;;;;;;;2.73;1.77;;;;;;;1.33;61.51;101749.01;1773161;79;20955;-55
2021/11/16 06:48:55;;;;;;;1.57;1.47;;;;;;;1.34;61.58;101745.92;1765578;80;20909;-55
2021/11/16 06:51:22;;;;;;;2.07;1.47;;;;;;;1.35;61.50;101743.73;1775460;78;21092;-56
2021/11/16 06:53:48;;;;;;;4.03;1.97;;;;;;;1.36;61.58;101749.52;1755124;80;20977;-55
2021/11/16 06:56:14;;;;;;;2.40;1.30;;;;;;;1.38;61.46;101747.33;1764938;79;21037;-55
2021/11/16 06:58:41;;;;;;;2.43;1.60;;;;;;;1.40;61.30;101744.72;1766439;80;20890;-55
2021/11/16 07:01:07;;;;;;;2.63;1.60;;;;;;;1.39;61.25;101738.94;1763084;79;21440;-55
2021/11/16 07:03:33;;;;;;;2.17;1.53;;;;;;;1.40;61.20;101741.63;1766086;79;21377;-55
2021/11/16 07:06:03;;;;;;;21.13;11.60;;;;;;;1.40;61.21;101738.98;1772098;79;21440;-55
2021/11/16 07:08:40;;;;;;;12.20;7.20;;;;;;;1.41;61.16;101740.77;1764954;79;20927;-56
2021/11/16 07:11:19;;;;;;;5.57;3.90;;;;;;;1.43;61.15;101735.07;1764246;80;21010;-55
2021/11/16 07:14:06;;;;;;;4.80;3.20;;;;;;;1.44;61.12;101734.21;1761931;79;20909;-55
2021/11/16 07:16:58;;;;;;;1.60;1.43;;;;;;;1.47;61.15;101736.01;1766874;79;21717;-55
2021/11/16 07:19:43;;;;;;;2.10;1.17;;;;;;;1.49;61.13;101732.96;1769220;79;21498;-55
2021/11/16 07:22:23;;;;;;;2.40;1.50;;;;;;;1.53;61.04;101733.03;1763030;79;21489;-55
2021/11/16 07:25:08;;;;;;;1.70;1.20;;;;;;;1.58;61.02;101736.23;1780625;78;21072;-55
2021/11/16 07:27:37;;;;;;;1.52;1.15;;;;;;;1.59;60.86;101734.94;1755299;80;21025;-56
2021/11/16 07:30:08;;;;;;;2.87;1.53;;;;;;;1.62;60.68;101724.79;1779752;78;22623;-56
2021/11/16 07:32:46;;;;;;;3.20;1.23;;;;;;;1.63;60.63;101720.84;1783567;78;20898;-56
2021/11/16 07:35:15;;;;;;;1.63;1.20;;;;;;;1.66;60.49;101720.02;1753239;80;20863;-56
2021/11/16 07:37:43;;;;;;;4.03;1.30;;;;;;;1.68;60.56;101713.88;1777133;78;21443;-56
2021/11/16 07:40:18;;;;;;;3.60;1.30;;;;;;;1.73;60.54;101718.83;1777191;78;21378;-56
2021/11/16 07:43:04;;;;;;;3.03;1.67;;;;;;;1.76;60.56;101711.37;1751763;80;21123;-56
2021/11/16 07:45:40;;;;;;;5.23;1.60;;;;;;;1.80;60.47;101710.54;1780922;78;21068;-56
2021/11/16 07:48:09;;;;;;;3.03;1.80;;;;;;;1.81;60.36;101713.23;1779848;79;21394;-56
2021/11/16 07:50:46;;;;;;;2.00;1.50;;;;;;;1.81;60.22;101705.27;1749498;80;21068;-56
2021/11/16 07:53:39;;;;;;;2.80;1.47;;;;;;;1.82;60.16;101709.70;1779723;80;21069;-56
2021/11/16 07:56:12;;;;;;;2.20;1.63;;;;;;;1.83;60.16;101707.52;1775325;79;21093;-56
2021/11/16 07:58:50;;;;;;;2.70;2.13;;;;;;;1.85;60.14;101712.87;1775259;79;21132;-56
2021/11/16 08:01:23;;;;;;;2.27;1.60;;;;;;;1.86;60.15;101714.66;1769818;79;21062;-56
2021/11/16 08:03:52;;;;;;;2.20;1.40;;;;;;;1.88;60.10;101710.24;1747410;80;21327;-56
2021/11/16 08:06:31;;;;;;;16.90;11.03;;;;;;;1.92;60.05;101704.56;1782032;78;21001;-56
2021/11/16 08:09:07;;;;;;;5.92;5.28;;;;;;;1.96;60.03;101705.96;1777696;78;21133;-55
2021/11/16 08:11:31;;;;;;;108.00;59.63;;;;;;;2.00;60.05;101713.56;1737661;80;21052;-56
2021/11/16 08:14:05;;;;;;;12.03;8.23;;;;;;;2.02;59.95;101703.44;1761188;79;20954;-56
2021/11/16 08:16:30;;;;;;;12.37;6.47;;;;;;;2.05;59.82;101706.12;1763668;79;21044;-56
2021/11/16 08:19:08;;;;;;;4.10;2.80;;;;;;;2.06;59.76;101702.60;1765641;79;21045;-56
2021/11/16 08:21:41;;;;;;;36.20;27.50;;;;;;;2.09;59.67;101707.98;1769939;79;21095;-56
2021/11/16 08:24:10;;;;;;;9.57;6.97;;;;;;;2.09;59.60;101697.36;1761833;79;21291;-56
2021/11/16 08:26:47;;;;;;;4.33;3.93;;;;;;;2.11;59.64;101700.05;1760389;79;21060;-56
2021/11/16 08:29:16;;;;;;;7.83;4.83;;;;;;;2.12;59.56;101703.16;1772367;79;21045;-57
2021/11/16 08:31:47;;;;;;;4.60;3.00;;;;;;;2.13;59.58;101702.27;1767316;79;21021;-57
2021/11/16 08:34:14;;;;;;;18.67;15.80;;;;;;;2.18;59.42;101696.19;1762121;79;21448;-56
2021/11/16 08:36:50;;;;;;;6.87;3.60;;;;;;;2.24;59.44;101691.39;1746931;79;21582;-56
2021/11/16 08:39:20;;;;;;;2.77;2.43;;;;;;;2.31;59.28;101688.39;1758982;80;21025;-56
2021/11/16 08:41:46;;;;;;;5.33;3.90;;;;;;;2.40;59.36;101684.12;1769052;78;21152;-56
2021/11/16 08:44:21;;;;;;;6.70;3.30;;;;;;;2.46;58.96;101680.25;1775541;78;21116;-55
2021/11/16 08:46:50;;;;;;;15.35;13.75;;;;;;;2.50;58.75;101679.84;1784028;80;22301;-55
2021/11/16 08:49:30;;;;;;;4.80;3.83;;;;;;;2.52;58.46;101679.44;1744349;81;21053;-56
2021/11/16 08:51:59;;;;;;;3.50;2.03;;;;;;;2.53;58.35;101683.45;1777951;78;21045;-56
2021/11/16 08:54:36;;;;;;;3.10;2.20;;;;;;;2.51;58.27;101676.31;1781633;78;20993;-56
2021/11/16 08:57:05;;;;;;;4.30;3.10;;;;;;;2.50;58.27;101673.20;1752440;80;22382;-56
2021/11/16 09:02:07;;;;;;;4.47;3.83;;;;;;;2.55;58.37;101667.06;1829722;76;26381;-56
2021/11/16 09:04:36;;;;;;;1.90;1.80;;;;;;;2.55;58.50;101672.38;1801871;78;20957;-56
2021/11/16 09:07:27;;;;;;;2.20;1.27;;;;;;;2.55;58.38;101667.53;1808247;78;21057;-56
2021/11/16 09:10:10;;;;;;;5.87;3.67;;;;;;;2.58;58.17;101662.23;1799442;77;21005;-56
2021/11/16 09:12:53;;;;;;;5.35;3.08;;;;;;;2.59;58.00;101662.27;1798122;78;21049;-56
2021/11/16 09:15:42;;;;;;;4.30;3.17;;;;;;;2.61;57.81;101656.55;1802629;78;20937;-56
2021/11/16 09:18:28;;;;;;;2.57;1.93;;;;;;;2.61;57.67;101651.66;1803586;78;20954;-56
2021/11/16 09:21:08;;;;;;;3.33;1.63;;;;;;;2.65;57.74;101653.47;1796014;77;22814;-56
2021/11/16 09:23:46;;;;;;;2.20;1.83;;;;;;;2.69;57.72;101648.67;1805383;78;20938;-56
2021/11/16 09:29:13;;;;;;;3.07;1.40;;;;;;;2.82;57.55;101639.97;1802497;78;21086;-56
2021/11/16 09:31:49;;;;;;;5.03;2.60;;;;;;;2.87;57.41;101639.61;1798003;78;20973;-57
2021/11/16 09:34:21;;;;;;;3.80;1.67;;;;;;;2.91;57.20;101636.53;1771564;80;21158;-56
2021/11/16 09:37:04;;;;;;;4.57;2.70;;;;;;;2.93;56.85;101622.39;1770470;80;21408;-56
2021/11/16 09:39:49;;;;;;;11.93;1.60;;;;;;;2.97;56.86;101627.33;1770879;80;21068;-56
2021/11/16 09:42:28;;;;;;;3.53;1.47;;;;;;;3.01;56.71;101622.05;1777920;80;21337;-56
2021/11/16 09:44:59;;;;;;;1.87;1.67;;;;;;;3.06;56.68;101620.79;1776033;80;20988;-56
2021/11/16 09:47:30;;;;;;;3.57;1.47;;;;;;;3.09;56.73;101618.58;1780309;80;21078;-56
2021/11/16 09:50:00;;;;;;;2.23;2.00;;;;;;;3.12;56.52;101621.28;1774074;80;20961;-55
2021/11/16 09:52:41;;;;;;;2.67;1.90;;;;;;;3.11;56.43;101616.84;1770614;80;20957;-56
2021/11/16 09:55:19;;;;;;;5.43;1.53;;;;;;;3.11;56.35;101615.50;1773368;80;20960;-56
2021/11/16 09:57:59;;;;;;;7.43;1.77;;;;;;;3.12;56.27;101606.66;1773687;80;20890;-55
2021/11/16 10:00:40;;;;;;;5.67;1.70;;;;;;;3.09;56.12;101603.51;1773117;79;21435;-56
2021/11/16 10:03:13;;;;;;;3.50;2.00;;;;;;;3.10;56.17;101606.63;1772181;80;20958;-56
2021/11/16 10:05:53;;;;;;;2.87;2.33;;;;;;;3.11;56.27;101602.20;1768456;80;20960;-55
2021/11/16 10:08:22;;;;;;;16.83;3.43;;;;;;;3.15;56.28;101598.25;1766408;80;20934;-56
2021/11/16 10:10:50;;;;;;;5.33;2.40;;;;;;;3.19;56.12;101591.20;1770606;80;20929;-55
2021/11/16 10:13:21;;;;;;;5.30;3.00;;;;;;;3.23;56.33;101589.05;1764930;80;21774;-56
2021/11/16 10:15:52;;;;;;;7.77;3.40;;;;;;;3.29;56.24;101587.77;1761184;80;21143;-56
2021/11/16 10:18:19;;;;;;;4.00;2.37;;;;;;;3.34;56.15;101582.05;1756085;80;21056;-56
2021/11/16 10:20:47;;;;;;;5.17;3.00;;;;;;;3.33;56.03;101585.14;1732986;82;20927;-56
2021/11/16 10:23:17;;;;;;;7.10;2.87;;;;;;;3.35;55.99;101586.49;1731083;82;21057;-56
2021/11/16 10:25:53;;;;;;;7.07;4.67;;;;;;;3.30;55.88;101577.14;1732031;82;21754;-56
2021/11/16 10:28:19;;;;;;;8.47;3.70;;;;;;;3.26;55.90;101575.75;1725297;81;21150;-56
2021/11/16 10:30:46;;;;;;;3.93;3.53;;;;;;;3.22;55.95;101576.17;1723527;82;21294;-56
2021/11/16 10:33:22;;;;;;;6.57;3.73;;;;;;;3.20;55.93;101575.26;1726547;82;21279;-57
2021/11/16 10:36:04;;;;;;;4.77;3.27;;;;;;;3.18;56.02;101572.12;1724141;82;21054;-56
2021/11/16 10:38:34;;;;;;;2.63;1.83;;;;;;;3.19;55.95;101567.25;1727281;82;21128;-57
2021/11/16 10:41:05;;;;;;;3.00;2.50;;;;;;;3.20;55.90;101559.73;1730341;81;21021;-56
2021/11/16 10:43:41;;;;;;;3.87;2.17;;;;;;;3.19;55.89;101552.62;1728245;82;20931;-56
2021/11/16 10:46:07;;;;;;;2.77;2.00;;;;;;;3.20;55.85;101553.97;1727867;82;20942;-57
2021/11/16 10:48:35;;;;;;;7.10;4.63;;;;;;;3.23;55.99;101549.98;1726279;82;21517;-56
2021/11/16 10:51:07;;;;;;;5.33;3.33;;;;;;;3.27;55.84;101541.61;1725945;82;21521;-56
2021/11/16 10:53:34;;;;;;;5.73;3.33;;;;;;;3.32;55.91;101538.54;1730223;82;20950;-56
2021/11/16 10:56:02;;;;;;;5.53;3.53;;;;;;;3.36;55.60;101537.70;1732353;82;20911;-57
2021/11/16 10:58:40;;;;;;;7.43;3.50;;;;;;;3.38;55.56;101534.63;1727437;82;22009;-56
2021/11/16 11:01:12;;;;;;;3.30;2.97;;;;;;;3.38;55.53;101523.55;1729166;81;21030;-56
2021/11/16 11:03:44;;;;;;;4.70;3.47;;;;;;;3.38;55.33;101526.64;1778872;79;21090;-56
2021/11/16 11:06:15;;;;;;;5.50;2.73;;;;;;;3.36;55.33;101523.06;1775914;79;21049;-56
2021/11/16 11:08:51;;;;;;;5.10;4.63;;;;;;;3.36;55.35;101520.41;1781751;79;20905;-56
2021/11/16 11:11:33;;;;;;;5.07;4.10;;;;;;;3.36;55.29;101515.08;1771207;79;21125;-56
2021/11/16 11:14:18;;;;;;;8.47;4.33;;;;;;;3.36;55.25;101515.08;1776362;79;21126;-56
2021/11/16 11:17:00;;;;;;;6.85;3.77;;;;;;;3.36;55.21;101515.98;1775625;79;21171;-56
2021/11/16 11:19:34;;;;;;;6.03;4.80;;;;;;;3.38;55.43;101508.01;1769816;79;21412;-56
2021/11/16 11:24:43;;;;;;;4.57;4.03;;;;;;;3.38;55.08;101506.68;1774565;79;21114;-56
2021/11/16 11:27:28;;;;;;;6.93;4.43;;;;;;;3.38;55.21;101501.36;1776131;79;21028;-56
2021/11/16 11:29:47;;;;;;;7.27;5.53;;;;;;;3.38;55.14;101496.92;1781399;79;21115;-56
2021/11/16 11:32:30;;;;;;;6.83;4.83;;;;;;;3.38;55.04;101495.59;1775782;79;20889;-56
2021/11/16 11:34:59;;;;;;;7.07;4.10;;;;;;;3.36;55.08;101493.35;1771550;79;21083;-57
2021/11/16 11:37:52;;;;;;;5.60;4.80;;;;;;;3.38;54.90;101498.26;1749894;81;21518;-57
2021/11/16 11:40:29;;;;;;;8.67;5.17;;;;;;;3.35;54.79;101492.00;1766663;80;21243;-57
2021/11/16 11:43:00;;;;;;;7.93;5.37;;;;;;;3.35;54.81;101497.33;1767034;80;21103;-57
2021/11/16 11:45:36;;;;;;;10.23;5.17;;;;;;;3.35;54.84;101492.89;1766618;80;21087;-57
2021/11/16 11:48:12;;;;;;;10.53;5.47;;;;;;;3.37;55.05;101492.91;1765135;80;21110;-57
2021/11/16 11:50:45;;;;;;;8.00;5.27;;;;;;;3.37;55.07;101486.26;1771048;80;21605;-57
2021/11/16 11:53:16;;;;;;;8.27;5.30;;;;;;;3.38;55.15;101492.93;1773641;80;21819;-57
2021/11/16 11:55:51;;;;;;;6.27;5.30;;;;;;;3.38;55.15;101488.05;1776411;80;21325;-57
2021/11/16 11:58:20;;;;;;;7.63;4.23;;;;;;;3.38;55.14;101480.95;1776935;80;20984;-57
2021/11/16 12:00:49;;;;;;;6.50;4.60;;;;;;;3.39;55.11;101475.19;1772392;80;22204;-57